John_paul K — PBHY — position and weather

sailwx.info

Track history (hours):
 
Tides and Currents Weather Stations Pressure Air Temp Water Temp Dewpoint Dewpoint Depression Visibility Wind Speed Wind Dir Waves Ship Positions

John_paul K

Last reported at 2017-Jan-19 18:14 UTC. Time now 2017-Jan-20 01:38 UTC.
Position N 54°06' E 009°20'.

Length 90 m; draft 4 m.

Type: Cargo ship. MMSI: 245181000.

Date/timePositionNaut miles runAvg speedWind from/ knotsBaromVisibWave heightAir tempDewpointWater temp
2017-Jan-19 18:14N 54°06' E 009°20'4 5.6
2017-Jan-19 17:32N 54°02' E 009°18'6 6.0
2017-Jan-19 16:33N 53°57' E 009°14'5 4.6
2017-Jan-19 15:34N 53°54' E 009°09'2 2.1
2017-Jan-19 14:33N 53°53' E 009°05'6 6.4
2017-Jan-19 13:33N 53°51' E 008°55'1110.5
2017-Jan-19 12:33N 53°56' E 008°40'1211.6
2017-Jan-19 11:33N 53°59' E 008°21'1111.4
2017-Jan-19 10:33N 53°58' E 008°01'1312.1
2017-Jan-19 09:31N 53°55' E 007°41'1211.6
2017-Jan-19 08:27N 53°52' E 007°20'2611.2
2017-Jan-19 06:07N 53°47' E 006°37'4111.6
2017-Jan-19 02:33N 53°35' E 005°31'2512.3
2017-Jan-19 00:33N 53°26' E 004°51'1212.0
2017-Jan-18 23:33N 53°17' E 004°38'1313.1
2017-Jan-18 22:32N 53°05' E 004°27'1413.4
2017-Jan-18 21:30N 52°53' E 004°18'10512.6
2017-Jan-18 13:09N 51°35' E 002°23'610.3
2017-Jan-18 12:34N 51°30' E 002°18'1010.1
2017-Jan-18 11:33N 51°21' E 002°09'1010.2
2017-Jan-18 10:34N 51°13' E 002°00'1010.3
2017-Jan-18 09:33N 51°06' E 001°47'1110.6
2017-Jan-18 08:34N 50°58' E 001°36'11911.4
2017-Jan-17 22:07N 49°59' W 001°05'712.8
2017-Jan-17 21:33N 49°56' W 001°16'1212.3
2017-Jan-17 20:34N 49°52' W 001°33'1111.2
2017-Jan-17 19:33N 49°48' W 001°50'  
2017-Jan-10 15:33N 48°45' W 004°44'1111.1
2017-Jan-10 14:33N 48°42' W 004°60'1111.0
2017-Jan-10 13:33N 48°37' W 005°15'  
Track history (hours):
 
Tides and Currents Weather Stations Pressure Air Temp Water Temp Dewpoint Dewpoint Depression Visibility Wind Speed Wind Dir Waves Ship Positions

John_paul K

Last reported at 2017-Jan-19 18:14 UTC. Time now 2017-Jan-20 01:38 UTC.
Position N 54°06' E 009°20'.

Length 90 m; draft 4 m.

Type: Cargo ship. MMSI: 245181000.

Date/timePositionNaut miles runAvg speedWind from/ knotsBaromVisibWave heightAir tempDewpointWater temp
2017-Jan-19 18:14N 54°06' E 009°20'4 5.6
2017-Jan-19 17:32N 54°02' E 009°18'6 6.0
2017-Jan-19 16:33N 53°57' E 009°14'5 4.6
2017-Jan-19 15:34N 53°54' E 009°09'2 2.1
2017-Jan-19 14:33N 53°53' E 009°05'6 6.4
2017-Jan-19 13:33N 53°51' E 008°55'1110.5
2017-Jan-19 12:33N 53°56' E 008°40'1211.6
2017-Jan-19 11:33N 53°59' E 008°21'1111.4
2017-Jan-19 10:33N 53°58' E 008°01'1312.1
2017-Jan-19 09:31N 53°55' E 007°41'1211.6
2017-Jan-19 08:27N 53°52' E 007°20'2611.2
2017-Jan-19 06:07N 53°47' E 006°37'4111.6
2017-Jan-19 02:33N 53°35' E 005°31'2512.3
2017-Jan-19 00:33N 53°26' E 004°51'1212.0
2017-Jan-18 23:33N 53°17' E 004°38'1313.1
2017-Jan-18 22:32N 53°05' E 004°27'1413.4
2017-Jan-18 21:30N 52°53' E 004°18'10512.6
2017-Jan-18 13:09N 51°35' E 002°23'610.3
2017-Jan-18 12:34N 51°30' E 002°18'1010.1
2017-Jan-18 11:33N 51°21' E 002°09'1010.2
2017-Jan-18 10:34N 51°13' E 002°00'1010.3
2017-Jan-18 09:33N 51°06' E 001°47'1110.6
2017-Jan-18 08:34N 50°58' E 001°36'11911.4
2017-Jan-17 22:07N 49°59' W 001°05'712.8
2017-Jan-17 21:33N 49°56' W 001°16'1212.3
2017-Jan-17 20:34N 49°52' W 001°33'1111.2
2017-Jan-17 19:33N 49°48' W 001°50'  
2017-Jan-10 15:33N 48°45' W 004°44'1111.1
2017-Jan-10 14:33N 48°42' W 004°60'1111.0
2017-Jan-10 13:33N 48°37' W 005°15'  

Dump ship's entire track history